sensor_id;sensor_type;location;lat;lon;timestamp;pressure;altitude;pressure_sealevel;temperature;humidity
11347;BME280;5728;42.722;23.258;2023-05-03T00:01:52;95049.16;;;13.28;46.63
11347;BME280;5728;42.722;23.258;2023-05-03T00:04:19;95049.28;;;13.23;46.99
11347;BME280;5728;42.722;23.258;2023-05-03T00:06:47;95037.84;;;13.30;46.86
11347;BME280;5728;42.722;23.258;2023-05-03T00:09:15;95036.88;;;13.34;46.56
11347;BME280;5728;42.722;23.258;2023-05-03T00:11:42;95049.28;;;13.23;46.82
11347;BME280;5728;42.722;23.258;2023-05-03T00:14:09;95045.22;;;13.10;46.67
11347;BME280;5728;42.722;23.258;2023-05-03T00:16:35;95051.13;;;13.17;47.05
11347;BME280;5728;42.722;23.258;2023-05-03T00:19:02;95047.13;;;12.99;47.44
11347;BME280;5728;42.722;23.258;2023-05-03T00:21:29;95045.16;;;13.12;47.56
11347;BME280;5728;42.722;23.258;2023-05-03T00:23:56;95051.34;;;13.08;48.30
11347;BME280;5728;42.722;23.258;2023-05-03T00:26:24;95045.50;;;12.95;47.51
11347;BME280;5728;42.722;23.258;2023-05-03T00:28:51;95042.06;;;12.93;47.77
11347;BME280;5728;42.722;23.258;2023-05-03T00:31:18;95073.44;;;12.84;48.58
11347;BME280;5728;42.722;23.258;2023-05-03T00:33:44;95048.09;;;12.95;48.96
11347;BME280;5728;42.722;23.258;2023-05-03T00:36:12;95049.97;;;12.89;49.32
11347;BME280;5728;42.722;23.258;2023-05-03T00:38:40;95050.06;;;12.82;49.20
11347;BME280;5728;42.722;23.258;2023-05-03T00:41:08;95052.41;;;12.96;48.91
11347;BME280;5728;42.722;23.258;2023-05-03T00:43:37;95046.72;;;12.77;49.60
11347;BME280;5728;42.722;23.258;2023-05-03T00:46:05;95041.56;;;12.74;49.75
11347;BME280;5728;42.722;23.258;2023-05-03T00:48:32;95040.03;;;12.64;50.08
11347;BME280;5728;42.722;23.258;2023-05-03T00:51:00;95050.19;;;12.78;49.90
11347;BME280;5728;42.722;23.258;2023-05-03T00:53:28;95056.31;;;12.74;50.22
11347;BME280;5728;42.722;23.258;2023-05-03T00:55:58;95039.06;;;12.70;49.57
11347;BME280;5728;42.722;23.258;2023-05-03T00:58:26;95052.81;;;12.75;49.39
11347;BME280;5728;42.722;23.258;2023-05-03T01:00:54;95039.06;;;12.70;50.52
11347;BME280;5728;42.722;23.258;2023-05-03T01:03:21;95036.41;;;12.73;49.88
11347;BME280;5728;42.722;23.258;2023-05-03T01:05:55;95041.50;;;12.77;49.43
11347;BME280;5728;42.722;23.258;2023-05-03T01:08:31;95044.44;;;12.61;50.40
11347;BME280;5728;42.722;23.258;2023-05-03T01:11:06;95033.06;;;12.65;49.48
11347;BME280;5728;42.722;23.258;2023-05-03T01:13:39;95036.19;;;12.38;49.86
11347;BME280;5728;42.722;23.258;2023-05-03T01:16:17;95036.16;;;12.41;49.96
11347;BME280;5728;42.722;23.258;2023-05-03T01:18:47;95033.28;;;12.54;50.36
11347;BME280;5728;42.722;23.258;2023-05-03T01:21:16;95032.50;;;12.51;50.00
11347;BME280;5728;42.722;23.258;2023-05-03T01:23:54;95023.88;;;12.47;50.17
11347;BME280;5728;42.722;23.258;2023-05-03T01:26:25;95042.81;;;12.54;49.78
11347;BME280;5728;42.722;23.258;2023-05-03T01:28:52;95030.03;;;12.43;50.15
11347;BME280;5728;42.722;23.258;2023-05-03T01:31:22;95037.91;;;12.39;51.27
11347;BME280;5728;42.722;23.258;2023-05-03T01:34:16;95028.16;;;12.50;50.56
11347;BME280;5728;42.722;23.258;2023-05-03T01:36:44;95030.88;;;12.44;51.41
11347;BME280;5728;42.722;23.258;2023-05-03T01:39:21;95029.13;;;12.46;49.96
11347;BME280;5728;42.722;23.258;2023-05-03T01:41:51;95030.94;;;12.41;50.63
11347;BME280;5728;42.722;23.258;2023-05-03T01:44:19;95027.72;;;12.27;50.15
11347;BME280;5728;42.722;23.258;2023-05-03T01:46:46;95022.66;;;12.21;50.55
11347;BME280;5728;42.722;23.258;2023-05-03T01:49:14;95032.19;;;12.18;50.69
11347;BME280;5728;42.722;23.258;2023-05-03T01:51:40;95019.69;;;12.40;50.81
11347;BME280;5728;42.722;23.258;2023-05-03T01:54:07;95017.50;;;12.18;50.41
11347;BME280;5728;42.722;23.258;2023-05-03T01:56:34;95025.50;;;12.05;50.46
11347;BME280;5728;42.722;23.258;2023-05-03T01:59:03;95023.88;;;12.00;50.72
11347;BME280;5728;42.722;23.258;2023-05-03T02:01:30;95013.44;;;12.03;50.86
11347;BME280;5728;42.722;23.258;2023-05-03T02:03:56;95010.25;;;11.84;51.06
11347;BME280;5728;42.722;23.258;2023-05-03T02:06:23;94997.50;;;11.71;51.08
11347;BME280;5728;42.722;23.258;2023-05-03T02:08:50;95004.34;;;11.76;51.74
11347;BME280;5728;42.722;23.258;2023-05-03T02:11:16;95004.28;;;11.79;51.34
11347;BME280;5728;42.722;23.258;2023-05-03T02:13:44;94995.72;;;11.74;51.40
11347;BME280;5728;42.722;23.258;2023-05-03T02:16:12;94983.66;;;11.70;51.53
11347;BME280;5728;42.722;23.258;2023-05-03T02:18:39;94989.69;;;11.71;52.10
11347;BME280;5728;42.722;23.258;2023-05-03T02:21:07;94993.94;;;11.76;51.98
11347;BME280;5728;42.722;23.258;2023-05-03T02:23:34;94993.97;;;11.73;52.60
11347;BME280;5728;42.722;23.258;2023-05-03T02:26:01;94975.94;;;11.64;52.58
11347;BME280;5728;42.722;23.258;2023-05-03T02:28:27;94989.78;;;11.65;52.70
11347;BME280;5728;42.722;23.258;2023-05-03T02:30:54;95000.22;;;11.62;53.17
11347;BME280;5728;42.722;23.258;2023-05-03T02:33:22;94993.41;;;11.54;53.03
11347;BME280;5728;42.722;23.258;2023-05-03T02:35:49;94980.63;;;11.41;53.40
11347;BME280;5728;42.722;23.258;2023-05-03T02:38:16;94987.50;;;11.45;53.74
11347;BME280;5728;42.722;23.258;2023-05-03T02:40:43;94978.88;;;11.41;53.98
11347;BME280;5728;42.722;23.258;2023-05-03T02:43:09;94995.22;;;11.49;54.17
11347;BME280;5728;42.722;23.258;2023-05-03T02:45:36;95000.63;;;11.34;54.19
11347;BME280;5728;42.722;23.258;2023-05-03T02:48:03;94993.56;;;11.44;53.49
11347;BME280;5728;42.722;23.258;2023-05-03T02:50:31;95003.00;;;11.48;53.67
11347;BME280;5728;42.722;23.258;2023-05-03T02:52:58;95008.16;;;11.51;53.42
11347;BME280;5728;42.722;23.258;2023-05-03T02:55:25;94996.16;;;11.44;53.61
11347;BME280;5728;42.722;23.258;2023-05-03T02:57:51;94997.81;;;11.48;53.48
11347;BME280;5728;42.722;23.258;2023-05-03T03:00:19;94984.94;;;11.40;53.91
11347;BME280;5728;42.722;23.258;2023-05-03T03:02:46;94990.94;;;11.47;53.43
11347;BME280;5728;42.722;23.258;2023-05-03T03:05:14;94994.38;;;11.46;54.02
11347;BME280;5728;42.722;23.258;2023-05-03T03:07:43;94997.78;;;11.51;54.04
11347;BME280;5728;42.722;23.258;2023-05-03T03:10:10;95001.28;;;11.50;53.66
11347;BME280;5728;42.722;23.258;2023-05-03T03:12:37;95003.09;;;11.45;53.76
11347;BME280;5728;42.722;23.258;2023-05-03T03:15:05;95012.59;;;11.43;53.85
11347;BME280;5728;42.722;23.258;2023-05-03T03:17:32;95004.97;;;11.34;54.23
11347;BME280;5728;42.722;23.258;2023-05-03T03:20:03;95010.88;;;11.43;53.90
11347;BME280;5728;42.722;23.258;2023-05-03T03:22:31;95022.94;;;11.46;54.42
11347;BME280;5728;42.722;23.258;2023-05-03T03:24:59;95014.22;;;11.51;54.30
11347;BME280;5728;42.722;23.258;2023-05-03T03:27:26;95016.16;;;11.39;54.80
11347;BME280;5728;42.722;23.258;2023-05-03T03:29:52;95022.16;;;11.41;54.65
11347;BME280;5728;42.722;23.258;2023-05-03T03:32:19;95015.19;;;11.43;55.87
11347;BME280;5728;42.722;23.258;2023-05-03T03:34:46;95022.13;;;11.44;55.56
11347;BME280;5728;42.722;23.258;2023-05-03T03:37:13;95033.34;;;11.47;55.28
11347;BME280;5728;42.722;23.258;2023-05-03T03:39:40;95043.03;;;11.33;56.56
11347;BME280;5728;42.722;23.258;2023-05-03T03:42:10;95042.09;;;11.39;55.24
11347;BME280;5728;42.722;23.258;2023-05-03T03:44:37;95058.56;;;11.38;55.20
11347;BME280;5728;42.722;23.258;2023-05-03T03:47:04;95053.56;;;11.24;55.57
11347;BME280;5728;42.722;23.258;2023-05-03T03:49:31;95045.56;;;11.39;55.55
11347;BME280;5728;42.722;23.258;2023-05-03T03:51:58;95052.66;;;11.88;55.51
11347;BME280;5728;42.722;23.258;2023-05-03T03:54:25;95035.91;;;12.05;55.25
11347;BME280;5728;42.722;23.258;2023-05-03T03:56:52;95045.78;;;11.85;56.87
11347;BME280;5728;42.722;23.258;2023-05-03T03:59:20;95046.72;;;11.78;54.73
11347;BME280;5728;42.722;23.258;2023-05-03T04:01:47;95058.78;;;12.36;61.43
11347;BME280;5728;42.722;23.258;2023-05-03T04:04:13;95059.19;;;12.60;53.63
11347;BME280;5728;42.722;23.258;2023-05-03T04:06:40;95062.84;;;12.49;54.07
11347;BME280;5728;42.722;23.258;2023-05-03T04:09:08;95053.03;;;12.17;54.87
11347;BME280;5728;42.722;23.258;2023-05-03T04:11:35;95079.97;;;12.11;54.56
11347;BME280;5728;42.722;23.258;2023-05-03T04:14:01;95082.72;;;12.02;53.77
11347;BME280;5728;42.722;23.258;2023-05-03T04:16:29;95069.75;;;12.02;54.30
11347;BME280;5728;42.722;23.258;2023-05-03T04:18:56;95064.50;;;12.04;54.65
11347;BME280;5728;42.722;23.258;2023-05-03T04:21:23;95063.25;;;12.26;57.20
11347;BME280;5728;42.722;23.258;2023-05-03T04:23:50;95068.06;;;11.98;55.57
11347;BME280;5728;42.722;23.258;2023-05-03T04:26:17;95083.56;;;12.04;54.36
11347;BME280;5728;42.722;23.258;2023-05-03T04:28:46;95080.47;;;11.81;54.23
11347;BME280;5728;42.722;23.258;2023-05-03T04:31:15;95102.16;;;11.80;54.49
11347;BME280;5728;42.722;23.258;2023-05-03T04:33:44;95092.59;;;11.82;54.85
11347;BME280;5728;42.722;23.258;2023-05-03T04:36:11;95084.63;;;11.91;60.80
11347;BME280;5728;42.722;23.258;2023-05-03T04:38:40;95122.16;;;11.72;55.02
11347;BME280;5728;42.722;23.258;2023-05-03T04:41:07;95111.94;;;11.60;55.26
11347;BME280;5728;42.722;23.258;2023-05-03T04:43:34;95107.75;;;11.50;55.20
11347;BME280;5728;42.722;23.258;2023-05-03T04:46:01;95117.13;;;11.60;57.21
11347;BME280;5728;42.722;23.258;2023-05-03T04:48:29;95125.13;;;11.45;55.77
11347;BME280;5728;42.722;23.258;2023-05-03T04:50:57;95121.63;;;11.46;56.08
11347;BME280;5728;42.722;23.258;2023-05-03T04:53:25;95121.81;;;11.31;56.60
11347;BME280;5728;42.722;23.258;2023-05-03T04:55:51;95124.47;;;11.26;56.82
11347;BME280;5728;42.722;23.258;2023-05-03T04:58:18;95127.94;;;11.27;56.97
11347;BME280;5728;42.722;23.258;2023-05-03T05:00:45;95129.72;;;11.25;57.08
11347;BME280;5728;42.722;23.258;2023-05-03T05:03:12;95133.91;;;11.33;57.19
11347;BME280;5728;42.722;23.258;2023-05-03T05:05:38;95139.06;;;11.36;57.42
11347;BME280;5728;42.722;23.258;2023-05-03T05:08:06;95133.97;;;11.29;57.44
11347;BME280;5728;42.722;23.258;2023-05-03T05:10:36;95148.81;;;11.18;58.02
11347;BME280;5728;42.722;23.258;2023-05-03T05:13:03;95136.75;;;11.14;58.10
11347;BME280;5728;42.722;23.258;2023-05-03T05:15:30;95145.50;;;11.04;58.53
11347;BME280;5728;42.722;23.258;2023-05-03T05:17:57;95162.75;;;11.08;59.47
11347;BME280;5728;42.722;23.258;2023-05-03T05:20:23;95151.44;;;11.16;60.74
11347;BME280;5728;42.722;23.258;2023-05-03T05:22:50;95162.88;;;10.99;62.56
11347;BME280;5728;42.722;23.258;2023-05-03T05:25:19;95156.94;;;10.87;64.29
11347;BME280;5728;42.722;23.258;2023-05-03T05:27:45;95162.28;;;10.74;65.84
11347;BME280;5728;42.722;23.258;2023-05-03T05:30:13;95161.34;;;10.79;65.21
11347;BME280;5728;42.722;23.258;2023-05-03T05:32:39;95196.03;;;10.69;66.39
11347;BME280;5728;42.722;23.258;2023-05-03T05:35:07;95165.66;;;10.82;66.38
11347;BME280;5728;42.722;23.258;2023-05-03T05:37:34;95171.66;;;10.87;66.25
11347;BME280;5728;42.722;23.258;2023-05-03T05:40:00;95169.94;;;10.84;66.26
11347;BME280;5728;42.722;23.258;2023-05-03T05:42:30;95166.41;;;10.92;66.70
11347;BME280;5728;42.722;23.258;2023-05-03T05:44:56;95164.75;;;10.84;66.49
11347;BME280;5728;42.722;23.258;2023-05-03T05:47:23;95162.94;;;10.94;67.59
11347;BME280;5728;42.722;23.258;2023-05-03T05:49:51;95166.34;;;10.99;66.43
11347;BME280;5728;42.722;23.258;2023-05-03T05:52:18;95171.47;;;11.04;66.52
11347;BME280;5728;42.722;23.258;2023-05-03T05:54:44;95161.91;;;11.06;66.00
11347;BME280;5728;42.722;23.258;2023-05-03T05:57:11;95161.88;;;11.12;64.59
11347;BME280;5728;42.722;23.258;2023-05-03T05:59:40;95160.94;;;11.17;65.53
11347;BME280;5728;42.722;23.258;2023-05-03T06:02:13;95162.59;;;11.23;64.01
11347;BME280;5728;42.722;23.258;2023-05-03T06:04:40;95165.13;;;11.29;64.11
11347;BME280;5728;42.722;23.258;2023-05-03T06:07:07;95160.69;;;11.35;63.68
11347;BME280;5728;42.722;23.258;2023-05-03T06:09:34;95158.22;;;11.26;63.53
11347;BME280;5728;42.722;23.258;2023-05-03T06:12:01;95167.84;;;11.20;64.16
11347;BME280;5728;42.722;23.258;2023-05-03T06:14:28;95163.41;;;11.26;65.87
11347;BME280;5728;42.722;23.258;2023-05-03T06:16:56;95156.41;;;11.33;64.23
11347;BME280;5728;42.722;23.258;2023-05-03T06:19:23;95134.94;;;11.22;64.53
11347;BME280;5728;42.722;23.258;2023-05-03T06:21:50;95162.59;;;11.23;64.44
11347;BME280;5728;42.722;23.258;2023-05-03T06:24:16;95154.88;;;11.15;65.30
11347;BME280;5728;42.722;23.258;2023-05-03T06:26:45;95153.06;;;11.23;63.57
11347;BME280;5728;42.722;23.258;2023-05-03T06:29:12;95153.94;;;11.24;65.37
11347;BME280;5728;42.722;23.258;2023-05-03T06:31:39;95156.28;;;11.45;64.67
11347;BME280;5728;42.722;23.258;2023-05-03T06:34:08;95157.91;;;11.50;64.44
11347;BME280;5728;42.722;23.258;2023-05-03T06:36:35;95150.13;;;11.52;63.94
11347;BME280;5728;42.722;23.258;2023-05-03T06:39:02;95143.78;;;11.74;64.59
11347;BME280;5728;42.722;23.258;2023-05-03T06:41:29;95146.25;;;11.83;63.43
11347;BME280;5728;42.722;23.258;2023-05-03T06:43:57;95147.09;;;11.85;64.80
11347;BME280;5728;42.722;23.258;2023-05-03T06:46:25;95134.19;;;11.79;63.64
11347;BME280;5728;42.722;23.258;2023-05-03T06:48:51;95131.56;;;11.82;62.11
11347;BME280;5728;42.722;23.258;2023-05-03T06:51:21;95127.97;;;11.89;62.30
11347;BME280;5728;42.722;23.258;2023-05-03T06:53:52;95123.88;;;11.73;62.46
11347;BME280;5728;42.722;23.258;2023-05-03T06:56:20;95132.53;;;11.75;62.24
11347;BME280;5728;42.722;23.258;2023-05-03T06:58:47;95123.97;;;11.64;62.44
11347;BME280;5728;42.722;23.258;2023-05-03T07:01:14;95122.09;;;11.77;63.04
11347;BME280;5728;42.722;23.258;2023-05-03T07:03:41;95111.63;;;11.81;62.23
11347;BME280;5728;42.722;23.258;2023-05-03T07:06:09;95122.78;;;11.89;62.67
11347;BME280;5728;42.722;23.258;2023-05-03T07:08:37;95117.47;;;11.97;62.60
11347;BME280;5728;42.722;23.258;2023-05-03T07:11:04;95111.31;;;12.02;61.64
11347;BME280;5728;42.722;23.258;2023-05-03T07:13:31;95105.97;;;12.11;60.99
11347;BME280;5728;42.722;23.258;2023-05-03T07:15:59;95114.91;;;11.95;61.86
11347;BME280;5728;42.722;23.258;2023-05-03T07:18:26;95125.91;;;12.11;61.83
11347;BME280;5728;42.722;23.258;2023-05-03T07:20:53;95123.00;;;12.31;60.90
11347;BME280;5728;42.722;23.258;2023-05-03T07:23:21;95122.22;;;12.26;61.20
11347;BME280;5728;42.722;23.258;2023-05-03T07:25:49;95121.75;;;12.53;60.16
11347;BME280;5728;42.722;23.258;2023-05-03T07:28:18;95116.28;;;12.68;59.31
11347;BME280;5728;42.722;23.258;2023-05-03T07:30:46;95116.94;;;12.79;59.50
11347;BME280;5728;42.722;23.258;2023-05-03T07:33:12;95121.34;;;12.74;59.29
11347;BME280;5728;42.722;23.258;2023-05-03T07:35:39;95140.16;;;12.91;59.20
11347;BME280;5728;42.722;23.258;2023-05-03T07:38:06;95137.47;;;12.94;59.57
11347;BME280;5728;42.722;23.258;2023-05-03T07:40:33;95121.84;;;12.94;60.12
11347;BME280;5728;42.722;23.258;2023-05-03T07:43:01;95120.00;;;12.99;60.31
11347;BME280;5728;42.722;23.258;2023-05-03T07:45:28;95116.81;;;12.85;60.76
11347;BME280;5728;42.722;23.258;2023-05-03T07:47:55;95137.47;;;12.94;60.85
11347;BME280;5728;42.722;23.258;2023-05-03T07:50:22;95117.50;;;12.96;60.67
11347;BME280;5728;42.722;23.258;2023-05-03T07:52:49;95125.38;;;12.92;61.56
11347;BME280;5728;42.722;23.258;2023-05-03T07:55:18;95134.91;;;12.93;61.36
11347;BME280;5728;42.722;23.258;2023-05-03T07:57:45;95132.97;;;13.04;60.77
11347;BME280;5728;42.722;23.258;2023-05-03T08:00:14;95133.72;;;13.10;61.00
11347;BME280;5728;42.722;23.258;2023-05-03T08:02:42;95118.06;;;13.13;61.01
11347;BME280;5728;42.722;23.258;2023-05-03T08:05:10;95122.09;;;13.28;60.82
11347;BME280;5728;42.722;23.258;2023-05-03T08:07:38;95122.63;;;13.43;60.42
11347;BME280;5728;42.722;23.258;2023-05-03T08:10:06;95135.91;;;13.31;60.38
11347;BME280;5728;42.722;23.258;2023-05-03T08:12:34;95133.63;;;13.16;60.97
11347;BME280;5728;42.722;23.258;2023-05-03T08:15:01;95131.66;;;13.27;60.96
11347;BME280;5728;42.722;23.258;2023-05-03T08:17:30;95130.09;;;13.17;61.47
11347;BME280;5728;42.722;23.258;2023-05-03T08:19:57;95134.84;;;13.41;60.77
11347;BME280;5728;42.722;23.258;2023-05-03T08:22:24;95149.97;;;13.66;60.50
11347;BME280;5728;42.722;23.258;2023-05-03T08:24:51;95142.97;;;13.68;60.17
11347;BME280;5728;42.722;23.258;2023-05-03T08:27:20;95142.44;;;13.92;59.34
11347;BME280;5728;42.722;23.258;2023-05-03T08:29:48;95142.94;;;14.07;59.30
11347;BME280;5728;42.722;23.258;2023-05-03T08:32:15;95133.34;;;14.08;59.42
11347;BME280;5728;42.722;23.258;2023-05-03T08:34:44;95166.75;;;14.31;59.13
11347;BME280;5728;42.722;23.258;2023-05-03T08:37:10;95158.63;;;14.44;58.80
11347;BME280;5728;42.722;23.258;2023-05-03T08:39:37;95182.41;;;14.67;57.63
11347;BME280;5728;42.722;23.258;2023-05-03T08:42:06;95148.84;;;14.86;57.62
11347;BME280;5728;42.722;23.258;2023-05-03T08:44:36;95152.91;;;15.30;56.16
11347;BME280;5728;42.722;23.258;2023-05-03T08:47:04;95134.59;;;15.62;56.12
11347;BME280;5728;42.722;23.258;2023-05-03T08:49:31;95134.66;;;16.18;53.68
11347;BME280;5728;42.722;23.258;2023-05-03T08:52:05;95148.22;;;16.29;52.10
11347;BME280;5728;42.722;23.258;2023-05-03T08:54:32;95150.03;;;16.27;53.28
11347;BME280;5728;42.722;23.258;2023-05-03T08:56:59;95157.31;;;16.45;52.30
11347;BME280;5728;42.722;23.258;2023-05-03T08:59:26;95121.47;;;16.99;51.31
11347;BME280;5728;42.722;23.258;2023-05-03T09:01:54;95110.91;;;16.50;51.63
11347;BME280;5728;42.722;23.258;2023-05-03T09:04:31;95130.13;;;16.23;53.48
11347;BME280;5728;42.722;23.258;2023-05-03T09:07:08;95128.94;;;16.33;53.75
11347;BME280;5728;42.722;23.258;2023-05-03T09:09:35;95135.53;;;16.17;53.64
11347;BME280;5728;42.722;23.258;2023-05-03T09:12:02;95134.81;;;16.12;54.09
11347;BME280;5728;42.722;23.258;2023-05-03T09:14:40;95122.50;;;16.15;53.89
11347;BME280;5728;42.722;23.258;2023-05-03T09:17:13;95117.69;;;16.29;53.32
11347;BME280;5728;42.722;23.258;2023-05-03T09:19:51;95118.09;;;16.71;51.79
11347;BME280;5728;42.722;23.258;2023-05-03T09:22:21;95089.31;;;16.70;52.36
11347;BME280;5728;42.722;23.258;2023-05-03T09:24:52;95102.53;;;17.41;50.77
11347;BME280;5728;42.722;23.258;2023-05-03T09:27:19;95103.59;;;17.60;50.37
11347;BME280;5728;42.722;23.258;2023-05-03T09:29:47;95101.88;;;17.82;49.85
11347;BME280;5728;42.722;23.258;2023-05-03T09:32:23;95113.19;;;17.84;49.23
11347;BME280;5728;42.722;23.258;2023-05-03T09:34:50;95088.09;;;17.77;49.38
11347;BME280;5728;42.722;23.258;2023-05-03T09:37:35;95090.47;;;16.87;50.91
11347;BME280;5728;42.722;23.258;2023-05-03T09:40:07;95120.03;;;17.15;50.99
11347;BME280;5728;42.722;23.258;2023-05-03T09:42:35;95098.69;;;17.26;51.42
11347;BME280;5728;42.722;23.258;2023-05-03T09:45:04;95077.00;;;17.92;50.29
11347;BME280;5728;42.722;23.258;2023-05-03T09:47:48;95080.63;;;18.55;50.13
11347;BME280;5728;42.722;23.258;2023-05-03T09:50:15;95072.28;;;18.43;48.90
11347;BME280;5728;42.722;23.258;2023-05-03T09:52:44;95077.41;;;18.68;47.87
11347;BME280;5728;42.722;23.258;2023-05-03T09:55:15;95071.19;;;18.71;48.00
11347;BME280;5728;42.722;23.258;2023-05-03T09:57:46;95081.84;;;19.08;47.08
11347;BME280;5728;42.722;23.258;2023-05-03T10:00:13;95080.66;;;18.95;47.29
11347;BME280;5728;42.722;23.258;2023-05-03T10:02:41;95074.81;;;19.67;45.65
11347;BME280;5728;42.722;23.258;2023-05-03T10:05:10;95070.91;;;19.95;44.49
11347;BME280;5728;42.722;23.258;2023-05-03T10:07:39;95058.09;;;20.77;43.21
11347;BME280;5728;42.722;23.258;2023-05-03T10:10:09;95061.66;;;19.67;43.73
11347;BME280;5728;42.722;23.258;2023-05-03T10:12:37;95064.22;;;19.69;44.34
11347;BME280;5728;42.722;23.258;2023-05-03T10:15:06;95063.06;;;19.74;44.18
11347;BME280;5728;42.722;23.258;2023-05-03T10:17:38;95059.16;;;20.39;44.71
11347;BME280;5728;42.722;23.258;2023-05-03T10:20:11;95069.25;;;20.65;43.17
11347;BME280;5728;42.722;23.258;2023-05-03T10:23:06;95054.06;;;21.22;42.29
11347;BME280;5728;42.722;23.258;2023-05-03T10:25:36;95058.13;;;21.12;42.18
11347;BME280;5728;42.722;23.258;2023-05-03T10:28:05;95024.28;;;20.85;42.49
11347;BME280;5728;42.722;23.258;2023-05-03T10:30:33;95031.41;;;21.00;42.56
11347;BME280;5728;42.722;23.258;2023-05-03T10:33:28;95023.09;;;21.25;42.60
11347;BME280;5728;42.722;23.258;2023-05-03T10:35:55;95020.72;;;20.86;42.78
11347;BME280;5728;42.722;23.258;2023-05-03T10:38:24;95011.25;;;20.82;43.41
11347;BME280;5728;42.722;23.258;2023-05-03T10:40:54;95010.88;;;21.40;43.61
11347;BME280;5728;42.722;23.258;2023-05-03T10:43:51;95014.63;;;21.36;44.00
11347;BME280;5728;42.722;23.258;2023-05-03T10:46:30;95021.63;;;21.02;43.71
11347;BME280;5728;42.722;23.258;2023-05-03T10:49:19;95026.28;;;21.15;42.77
11347;BME280;5728;42.722;23.258;2023-05-03T10:51:46;95022.75;;;20.81;43.95
11347;BME280;5728;42.722;23.258;2023-05-03T10:54:13;95020.72;;;20.86;44.29
11347;BME280;5728;42.722;23.258;2023-05-03T10:56:54;95009.88;;;20.75;45.93
11347;BME280;5728;42.722;23.258;2023-05-03T10:59:24;95020.41;;;20.92;45.42
11347;BME280;5728;42.722;23.258;2023-05-03T11:01:51;95027.16;;;20.64;47.71
11347;BME280;5728;42.722;23.258;2023-05-03T11:04:31;95022.13;;;20.59;44.62
11347;BME280;5728;42.722;23.258;2023-05-03T11:07:00;95024.28;;;20.85;44.92
11347;BME280;5728;42.722;23.258;2023-05-03T11:09:31;95026.75;;;20.37;44.97
11347;BME280;5728;42.722;23.258;2023-05-03T11:12:02;95021.94;;;20.28;45.02
11347;BME280;5728;42.722;23.258;2023-05-03T11:14:30;95023.25;;;20.01;45.92
11347;BME280;5728;42.722;23.258;2023-05-03T11:16:57;95013.03;;;19.57;47.41
11347;BME280;5728;42.722;23.258;2023-05-03T11:19:24;95010.88;;;19.84;46.85
11347;BME280;5728;42.722;23.258;2023-05-03T11:21:51;95013.97;;;20.11;45.75
11347;BME280;5728;42.722;23.258;2023-05-03T11:24:18;95002.06;;;20.57;45.53
11347;BME280;5728;42.722;23.258;2023-05-03T11:26:45;95000.47;;;20.87;44.18
11347;BME280;5728;42.722;23.258;2023-05-03T11:29:15;95006.31;;;21.11;44.33
11347;BME280;5728;42.722;23.258;2023-05-03T11:31:43;94990.72;;;20.72;45.44
11347;BME280;5728;42.722;23.258;2023-05-03T11:34:11;94991.66;;;20.71;45.27
11347;BME280;5728;42.722;23.258;2023-05-03T11:36:40;94994.59;;;20.30;45.57
11347;BME280;5728;42.722;23.258;2023-05-03T11:39:07;94991.34;;;20.07;46.37
11347;BME280;5728;42.722;23.258;2023-05-03T11:41:36;94983.44;;;19.52;48.05
11347;BME280;5728;42.722;23.258;2023-05-03T11:44:06;94986.72;;;19.76;47.84
11347;BME280;5728;42.722;23.258;2023-05-03T11:46:41;94976.84;;;19.98;47.26
11347;BME280;5728;42.722;23.258;2023-05-03T11:49:16;94980.59;;;20.11;47.45
11347;BME280;5728;42.722;23.258;2023-05-03T11:51:43;94962.84;;;20.15;47.65
11347;BME280;5728;42.722;23.258;2023-05-03T11:54:10;94973.91;;;20.40;46.31
11347;BME280;5728;42.722;23.258;2023-05-03T11:56:37;94955.47;;;20.23;47.24
11347;BME280;5728;42.722;23.258;2023-05-03T11:59:04;94948.66;;;20.00;47.55
11347;BME280;5728;42.722;23.258;2023-05-03T12:01:31;94953.06;;;20.00;47.15
11347;BME280;5728;42.722;23.258;2023-05-03T12:04:01;94956.03;;;19.94;47.79
11347;BME280;5728;42.722;23.258;2023-05-03T12:06:31;94950.75;;;19.94;48.05
11347;BME280;5728;42.722;23.258;2023-05-03T12:09:02;94937.59;;;19.94;48.02
11347;BME280;5728;42.722;23.258;2023-05-03T12:11:40;94929.13;;;20.40;46.85
11347;BME280;5728;42.722;23.258;2023-05-03T12:14:09;94958.66;;;20.64;46.26
11347;BME280;5728;42.722;23.258;2023-05-03T12:16:49;94951.09;;;20.22;46.58
11347;BME280;5728;42.722;23.258;2023-05-03T12:19:26;94945.94;;;20.02;47.33
11347;BME280;5728;42.722;23.258;2023-05-03T12:22:19;94932.38;;;19.56;48.10
11347;BME280;5728;42.722;23.258;2023-05-03T12:24:48;94936.88;;;19.54;48.67
11347;BME280;5728;42.722;23.258;2023-05-03T12:27:19;94967.56;;;19.72;48.48
11347;BME280;5728;42.722;23.258;2023-05-03T12:29:50;94939.22;;;19.42;49.25
11347;BME280;5728;42.722;23.258;2023-05-03T12:32:22;94953.41;;;19.00;50.13
11347;BME280;5728;42.722;23.258;2023-05-03T12:34:58;94950.53;;;18.46;51.77
11347;BME280;5728;42.722;23.258;2023-05-03T12:37:29;94968.50;;;18.15;52.96
11347;BME280;5728;42.722;23.258;2023-05-03T12:40:01;94937.56;;;18.01;53.77
11347;BME280;5728;42.722;23.258;2023-05-03T12:42:29;94976.03;;;17.59;54.21
11347;BME280;5728;42.722;23.258;2023-05-03T12:44:58;94943.66;;;17.37;55.40
11347;BME280;5728;42.722;23.258;2023-05-03T12:47:26;94948.63;;;17.21;56.06
11347;BME280;5728;42.722;23.258;2023-05-03T12:49:54;94928.06;;;17.10;57.01
11347;BME280;5728;42.722;23.258;2023-05-03T12:52:24;94936.50;;;16.95;57.10
11347;BME280;5728;42.722;23.258;2023-05-03T12:54:52;94918.97;;;16.97;57.80
11347;BME280;5728;42.722;23.258;2023-05-03T12:57:21;94945.97;;;16.76;58.49
11347;BME280;5728;42.722;23.258;2023-05-03T12:59:50;94939.31;;;16.91;59.02
11347;BME280;5728;42.722;23.258;2023-05-03T13:02:19;94922.03;;;16.85;59.07
11347;BME280;5728;42.722;23.258;2023-05-03T13:04:48;94931.97;;;16.52;59.97
11347;BME280;5728;42.722;23.258;2023-05-03T13:07:24;94912.16;;;16.44;60.40
11347;BME280;5728;42.722;23.258;2023-05-03T13:09:54;94919.19;;;16.68;60.49